createdAt,value
2019-03-31T00:01:23.855Z,50.83
2019-03-31T00:04:12.447Z,51.05
2019-03-31T00:07:01.857Z,50.96
2019-03-31T00:09:51.021Z,51.74
2019-03-31T00:12:40.176Z,51.91
2019-03-31T00:15:29.202Z,52.37
2019-03-31T00:18:18.947Z,52.88
2019-03-31T00:21:08.799Z,52.88
2019-03-31T00:23:57.563Z,52.58
2019-03-31T00:26:46.790Z,52.44
2019-03-31T00:29:36.333Z,52.15
2019-03-31T00:32:25.258Z,51.90
2019-03-31T00:35:14.492Z,51.57
2019-03-31T00:38:04.112Z,51.83
2019-03-31T00:40:53.039Z,52.34
2019-03-31T00:43:42.543Z,52.44
2019-03-31T00:46:32.089Z,52.56
2019-03-31T00:49:20.887Z,52.92
2019-03-31T00:52:10.167Z,53.12
2019-03-31T00:54:59.032Z,53.25
2019-03-31T00:57:47.750Z,53.78
2019-03-31T01:00:55.311Z,53.84
2019-03-31T01:03:43.987Z,54.08
2019-03-31T01:06:32.731Z,54.04
2019-03-31T01:09:25.358Z,54.21
2019-03-31T01:12:14.695Z,54.29
2019-03-31T01:15:06.236Z,54.53
2019-03-31T01:17:55.171Z,54.76
2019-03-31T01:20:45.431Z,54.73
2019-03-31T01:23:34.527Z,54.75
2019-03-31T01:26:23.971Z,55.28
2019-03-31T01:29:15.739Z,55.07
2019-03-31T01:32:05.278Z,55.15
2019-03-31T01:34:54.624Z,55.16
2019-03-31T01:37:44.385Z,54.76
2019-03-31T01:40:33.727Z,54.26
2019-03-31T01:43:23.123Z,53.65
2019-03-31T01:46:15.114Z,53.27
2019-03-31T01:49:04.225Z,52.99
2019-03-31T01:51:53.264Z,52.83
2019-03-31T01:54:42.135Z,53.79
2019-03-31T01:57:31.613Z,54.43
2019-03-31T02:00:45.598Z,54.54
2019-03-31T02:03:35.269Z,54.65
2019-03-31T02:06:24.552Z,54.89
2019-03-31T02:09:13.752Z,54.62
2019-03-31T02:12:03.045Z,54.56
2019-03-31T02:14:52.031Z,54.34
2019-03-31T02:17:41.616Z,54.38
2019-03-31T02:20:30.778Z,54.55
2019-03-31T02:23:19.463Z,54.27
2019-03-31T02:26:08.920Z,54.15
2019-03-31T02:28:58.725Z,55.09
2019-03-31T02:31:48.057Z,55.21
2019-03-31T02:34:37.178Z,55.10
2019-03-31T02:37:25.794Z,55.41
2019-03-31T02:40:15.016Z,55.17
2019-03-31T02:43:04.149Z,55.60
2019-03-31T02:45:53.553Z,55.94
2019-03-31T02:48:43.101Z,55.90
2019-03-31T02:51:32.492Z,55.67
2019-03-31T02:54:21.178Z,55.78
2019-03-31T02:57:11.095Z,55.50
2019-03-31T03:00:02.478Z,55.67
2019-03-31T03:02:53.613Z,55.97
2019-03-31T03:05:44.776Z,56.33
2019-03-31T03:08:36.668Z,56.68
2019-03-31T03:11:27.650Z,56.84
2019-03-31T03:14:16.511Z,56.61
2019-03-31T03:17:05.793Z,56.52
2019-03-31T03:19:54.412Z,56.76
2019-03-31T03:22:43.114Z,57.00
2019-03-31T03:25:32.238Z,57.45
2019-03-31T03:28:21.621Z,57.48
2019-03-31T03:31:15.741Z,57.21
2019-03-31T03:34:02.009Z,57.09
2019-03-31T03:36:50.988Z,56.70
2019-03-31T03:39:40.597Z,56.69
2019-03-31T03:42:30.031Z,56.62
2019-03-31T03:45:19.233Z,56.58
2019-03-31T03:48:08.734Z,56.64
2019-03-31T03:50:57.741Z,57.02
2019-03-31T03:53:47.276Z,57.28
2019-03-31T03:56:36.176Z,57.12
2019-03-31T03:59:25.648Z,57.09
2019-03-31T04:02:14.836Z,56.87
2019-03-31T04:05:03.641Z,56.84
2019-03-31T04:07:52.741Z,56.85
2019-03-31T04:11:26.321Z,57.01
2019-03-31T04:14:15.138Z,57.25
2019-03-31T04:17:04.017Z,57.93
2019-03-31T04:19:52.904Z,57.88
2019-03-31T04:22:42.108Z,57.89
2019-03-31T04:25:31.479Z,58.19
2019-03-31T04:28:20.875Z,58.01
2019-03-31T04:31:10.131Z,57.70
2019-03-31T04:34:00.178Z,57.54
2019-03-31T04:36:48.987Z,57.84
2019-03-31T04:39:38.138Z,57.99
2019-03-31T04:42:27.432Z,57.60
2019-03-31T04:45:17.090Z,57.51
2019-03-31T04:48:06.232Z,57.57
2019-03-31T04:50:55.342Z,57.64
2019-03-31T04:53:44.140Z,57.65
2019-03-31T04:56:33.541Z,57.61
2019-03-31T04:59:23.066Z,57.56
2019-03-31T05:02:12.673Z,57.63
2019-03-31T05:05:02.391Z,57.74
2019-03-31T05:07:51.346Z,57.95
2019-03-31T05:10:40.553Z,57.88
2019-03-31T05:13:30.004Z,58.17
2019-03-31T05:16:19.232Z,58.40
2019-03-31T05:19:08.923Z,58.46
2019-03-31T05:21:58.232Z,58.48
2019-03-31T05:24:47.746Z,58.43
2019-03-31T05:27:36.912Z,58.72
2019-03-31T05:30:26.539Z,58.66
2019-03-31T05:33:15.230Z,58.91
2019-03-31T05:36:04.130Z,59.16
2019-03-31T05:38:53.325Z,59.23
2019-03-31T05:41:42.738Z,59.17
2019-03-31T05:44:31.609Z,59.17
2019-03-31T05:47:20.837Z,59.50
2019-03-31T05:50:09.642Z,59.46
2019-03-31T05:52:59.364Z,59.55
2019-03-31T05:55:48.264Z,59.53
2019-03-31T05:58:37.344Z,59.42
2019-03-31T06:01:26.114Z,59.75
2019-03-31T06:04:14.645Z,59.83
2019-03-31T06:07:03.840Z,60.10
2019-03-31T06:09:53.131Z,60.40
2019-03-31T06:12:42.264Z,60.29
2019-03-31T06:15:31.320Z,61.07
2019-03-31T06:18:20.523Z,60.90
2019-03-31T06:21:09.694Z,60.63
2019-03-31T06:23:59.528Z,60.60
2019-03-31T06:26:49.327Z,60.83
2019-03-31T06:29:38.476Z,60.45
2019-03-31T06:32:30.551Z,60.56
2019-03-31T06:35:19.860Z,59.90
2019-03-31T06:38:08.896Z,59.47
2019-03-31T06:40:58.904Z,59.02
2019-03-31T06:43:48.708Z,58.91
2019-03-31T06:46:37.780Z,58.53
2019-03-31T06:49:27.285Z,58.91
2019-03-31T06:52:17.101Z,58.25
2019-03-31T06:55:08.077Z,58.34
2019-03-31T06:57:56.808Z,58.06
2019-03-31T07:00:45.925Z,58.61
2019-03-31T07:03:35.274Z,58.42
2019-03-31T07:06:24.480Z,58.46
2019-03-31T07:09:13.898Z,58.51
2019-03-31T07:12:02.731Z,58.55
2019-03-31T07:14:52.036Z,58.12
2019-03-31T07:17:41.179Z,57.30
2019-03-31T07:20:29.895Z,57.10
2019-03-31T07:23:19.420Z,56.74
2019-03-31T07:26:08.639Z,56.73
2019-03-31T07:28:58.202Z,56.98
2019-03-31T07:31:46.796Z,55.49
2019-03-31T07:34:35.505Z,55.15
2019-03-31T07:37:24.487Z,54.62
2019-03-31T07:40:14.732Z,54.11
2019-03-31T07:43:04.039Z,53.46
2019-03-31T07:45:55.824Z,53.42
2019-03-31T07:48:43.382Z,53.71
2019-03-31T07:51:32.793Z,53.49
2019-03-31T07:54:22.134Z,53.17
2019-03-31T07:57:10.876Z,51.49
2019-03-31T08:00:00.481Z,52.45
2019-03-31T08:02:50.019Z,51.16
2019-03-31T08:05:38.929Z,51.70
2019-03-31T08:08:28.326Z,51.83
2019-03-31T08:11:17.455Z,51.61
2019-03-31T08:14:06.740Z,50.17
2019-03-31T08:16:56.164Z,50.93
2019-03-31T08:19:45.837Z,49.52
2019-03-31T08:22:35.233Z,49.33
2019-03-31T08:25:24.324Z,47.96
2019-03-31T08:28:13.185Z,49.21
2019-03-31T08:31:02.227Z,48.84
2019-03-31T08:33:51.585Z,48.72
2019-03-31T08:36:40.651Z,48.75
2019-03-31T08:39:30.580Z,48.91
2019-03-31T08:42:20.059Z,46.79
2019-03-31T08:45:09.317Z,47.70
2019-03-31T08:47:58.519Z,46.13
2019-03-31T08:50:48.085Z,46.35
2019-03-31T08:53:37.824Z,45.45
2019-03-31T08:56:27.802Z,45.95
2019-03-31T08:59:16.877Z,46.23
2019-03-31T09:02:26.401Z,45.18
2019-03-31T09:05:15.796Z,43.98
2019-03-31T09:08:05.058Z,42.45
2019-03-31T09:10:54.269Z,43.32
2019-03-31T09:13:43.800Z,44.72
2019-03-31T09:16:33.125Z,44.30
2019-03-31T09:19:22.859Z,43.00
2019-03-31T09:22:11.554Z,41.62
2019-03-31T09:25:00.397Z,41.27
2019-03-31T09:27:49.566Z,40.75
2019-03-31T09:30:38.715Z,40.68
2019-03-31T09:33:29.903Z,39.17
2019-03-31T09:36:19.343Z,40.25
2019-03-31T09:39:08.681Z,40.77
2019-03-31T09:41:57.409Z,37.48
2019-03-31T09:44:46.896Z,36.89
2019-03-31T09:47:39.928Z,33.62
2019-03-31T09:50:28.991Z,35.58
2019-03-31T09:53:18.032Z,37.41
2019-03-31T09:56:07.653Z,35.05
2019-03-31T09:58:57.374Z,35.22
2019-03-31T10:01:46.797Z,35.32
2019-03-31T10:04:36.557Z,33.47
2019-03-31T10:07:26.066Z,34.05
2019-03-31T10:10:31.372Z,34.05
2019-03-31T10:13:20.399Z,34.37
2019-03-31T10:16:10.089Z,34.56
2019-03-31T10:18:59.554Z,34.31
2019-03-31T10:21:48.924Z,32.44
2019-03-31T10:24:38.058Z,34.15
2019-03-31T10:27:27.327Z,31.88
2019-03-31T10:30:19.903Z,31.88
2019-03-31T10:33:08.967Z,29.85
2019-03-31T10:35:57.536Z,29.85
2019-03-31T10:38:46.590Z,31.26
2019-03-31T10:41:35.868Z,30.92
2019-03-31T10:44:24.873Z,30.92
2019-03-31T10:47:13.995Z,29.60
2019-03-31T10:50:03.708Z,29.60
2019-03-31T10:52:52.957Z,30.54
2019-03-31T10:55:41.949Z,30.47
2019-03-31T10:58:33.241Z,29.98
2019-03-31T11:01:22.027Z,27.59
2019-03-31T11:04:11.558Z,28.22
2019-03-31T11:07:03.455Z,27.91
2019-03-31T11:09:51.491Z,27.92
2019-03-31T11:12:40.968Z,28.50
2019-03-31T11:15:30.484Z,28.63
2019-03-31T11:18:19.737Z,27.87
2019-03-31T11:21:15.290Z,27.44
2019-03-31T11:24:04.734Z,30.37
2019-03-31T11:26:53.629Z,28.48
2019-03-31T11:29:42.942Z,27.88
2019-03-31T11:32:32.328Z,28.01
2019-03-31T11:35:21.313Z,27.64
2019-03-31T11:38:10.559Z,27.17
2019-03-31T11:40:59.972Z,26.60
2019-03-31T11:43:49.127Z,25.96
2019-03-31T11:46:39.920Z,25.84
2019-03-31T11:49:28.658Z,28.76
2019-03-31T11:52:17.965Z,27.67
2019-03-31T11:55:09.033Z,26.41
2019-03-31T11:57:58.807Z,25.27
2019-03-31T12:00:54.218Z,26.91
2019-03-31T12:03:43.484Z,27.02
2019-03-31T12:06:32.206Z,26.82
2019-03-31T12:09:21.660Z,25.62
2019-03-31T12:12:11.089Z,26.14
2019-03-31T12:15:00.987Z,24.70
2019-03-31T12:17:50.958Z,26.05
2019-03-31T12:20:40.367Z,26.52
2019-03-31T12:23:29.472Z,26.35
2019-03-31T12:26:18.583Z,24.34
2019-03-31T12:29:07.751Z,24.60
2019-03-31T12:31:56.493Z,24.89
2019-03-31T12:34:45.417Z,23.42
2019-03-31T12:37:42.179Z,24.59
2019-03-31T12:40:33.766Z,24.82
2019-03-31T12:43:23.500Z,23.90
2019-03-31T12:46:12.525Z,25.80
2019-03-31T12:49:01.853Z,24.35
2019-03-31T12:51:50.940Z,25.30
2019-03-31T12:54:39.499Z,23.24
2019-03-31T12:57:28.340Z,23.08
2019-03-31T13:00:18.419Z,23.47
2019-03-31T13:03:08.012Z,22.48
2019-03-31T13:05:57.186Z,24.42
2019-03-31T13:08:46.709Z,23.15
2019-03-31T13:11:35.917Z,23.86
2019-03-31T13:14:24.834Z,22.40
2019-03-31T13:17:13.650Z,24.01
2019-03-31T13:20:03.068Z,23.25
2019-03-31T13:22:52.449Z,22.73
2019-03-31T13:25:41.829Z,23.12
2019-03-31T13:28:31.042Z,22.42
2019-03-31T13:31:20.498Z,21.99
2019-03-31T13:34:09.705Z,20.76
2019-03-31T13:36:58.793Z,22.79
2019-03-31T13:39:47.656Z,21.05
2019-03-31T13:42:37.501Z,21.92
2019-03-31T13:45:26.826Z,22.06
2019-03-31T13:48:16.479Z,22.25
2019-03-31T13:51:05.252Z,21.87
2019-03-31T13:53:54.996Z,22.41
2019-03-31T13:56:48.468Z,21.79
2019-03-31T13:59:35.439Z,21.27
2019-03-31T14:02:25.016Z,20.49
2019-03-31T14:05:14.593Z,21.43
2019-03-31T14:08:03.691Z,20.19
2019-03-31T14:10:53.149Z,20.83
2019-03-31T14:13:42.942Z,19.93
2019-03-31T14:16:32.923Z,20.09
2019-03-31T14:19:21.963Z,18.37
2019-03-31T14:22:10.857Z,20.09
2019-03-31T14:25:00.487Z,18.64
2019-03-31T14:27:49.348Z,17.72
2019-03-31T14:30:38.485Z,18.31
2019-03-31T14:33:31.256Z,18.08
2019-03-31T14:36:20.411Z,17.53
2019-03-31T14:39:10.334Z,17.00
2019-03-31T14:42:00.922Z,15.93
2019-03-31T14:44:50.235Z,16.67
2019-03-31T14:47:39.184Z,16.05
2019-03-31T14:50:33.803Z,15.67
2019-03-31T14:53:22.560Z,16.12
2019-03-31T14:56:12.460Z,16.09
2019-03-31T14:59:01.714Z,16.46
2019-03-31T15:01:51.961Z,16.45
2019-03-31T15:04:41.688Z,16.01
2019-03-31T15:07:30.899Z,15.86
2019-03-31T15:10:20.318Z,16.91
2019-03-31T15:13:09.612Z,16.79
2019-03-31T15:15:58.935Z,16.98
2019-03-31T15:18:48.114Z,16.64
2019-03-31T15:21:43.928Z,16.32
2019-03-31T15:24:31.383Z,16.40
2019-03-31T15:27:20.676Z,16.46
2019-03-31T15:30:10.062Z,16.53
2019-03-31T15:32:59.021Z,16.07
2019-03-31T15:35:48.282Z,16.12
2019-03-31T15:38:37.222Z,16.55
2019-03-31T15:41:26.607Z,16.60
2019-03-31T15:44:15.895Z,16.20
2019-03-31T15:47:04.859Z,16.72
2019-03-31T15:49:54.572Z,16.89
2019-03-31T15:52:43.474Z,16.50
2019-03-31T15:55:32.850Z,16.17
2019-03-31T15:58:22.373Z,16.64
2019-03-31T16:01:11.851Z,16.01
2019-03-31T16:04:00.825Z,16.47
2019-03-31T16:06:54.107Z,16.91
2019-03-31T16:09:43.370Z,17.18
2019-03-31T16:12:31.694Z,17.48
2019-03-31T16:15:20.544Z,18.02
2019-03-31T16:18:11.535Z,18.40
2019-03-31T16:20:59.969Z,18.70
2019-03-31T16:23:48.443Z,19.64
2019-03-31T16:26:37.153Z,20.68
2019-03-31T16:29:26.033Z,21.40
2019-03-31T16:32:14.245Z,21.51
2019-03-31T16:35:03.515Z,22.09
2019-03-31T16:37:51.711Z,22.32
2019-03-31T16:40:40.584Z,23.15
2019-03-31T16:43:30.104Z,23.50
2019-03-31T16:46:18.588Z,25.14
2019-03-31T16:49:07.419Z,24.13
2019-03-31T16:51:56.683Z,25.01
2019-03-31T16:54:45.693Z,24.45
2019-03-31T16:57:34.810Z,24.92
2019-03-31T17:00:23.372Z,25.27
2019-03-31T17:03:12.765Z,26.07
2019-03-31T17:06:01.989Z,25.63
2019-03-31T17:08:50.983Z,26.75
2019-03-31T17:11:40.252Z,27.50
2019-03-31T17:14:28.924Z,27.06
2019-03-31T17:17:17.429Z,27.89
2019-03-31T17:20:07.154Z,27.56
2019-03-31T17:22:55.972Z,27.73
2019-03-31T17:25:44.571Z,28.91
2019-03-31T17:28:33.323Z,29.51
2019-03-31T17:31:22.317Z,28.86
2019-03-31T17:34:10.899Z,29.25
2019-03-31T17:36:59.568Z,29.21
2019-03-31T17:40:05.123Z,29.59
2019-03-31T17:42:45.047Z,30.25
2019-03-31T17:45:37.573Z,31.19
2019-03-31T17:48:26.285Z,30.19
2019-03-31T17:51:15.251Z,30.69
2019-03-31T17:54:06.380Z,32.51
2019-03-31T17:56:54.670Z,31.67
2019-03-31T17:59:43.640Z,31.16
2019-03-31T18:02:32.998Z,31.66
2019-03-31T18:05:21.620Z,32.52
2019-03-31T18:08:10.361Z,32.29
2019-03-31T18:10:59.288Z,32.56
2019-03-31T18:13:48.428Z,32.42
2019-03-31T18:18:34.427Z,32.83
2019-03-31T18:21:27.076Z,33.04
2019-03-31T18:24:14.565Z,33.25
2019-03-31T18:27:03.375Z,33.02
2019-03-31T18:29:52.147Z,34.05
2019-03-31T18:32:41.406Z,33.22
2019-03-31T18:35:31.831Z,34.19
2019-03-31T18:38:20.621Z,34.02
2019-03-31T18:41:09.618Z,34.37
2019-03-31T18:43:58.102Z,34.25
2019-03-31T18:46:46.805Z,34.48
2019-03-31T18:49:36.387Z,35.05
2019-03-31T18:52:24.678Z,35.17
2019-03-31T18:55:22.404Z,35.17
2019-03-31T18:58:18.253Z,35.56
2019-03-31T19:01:30.449Z,35.18
2019-03-31T19:04:39.721Z,35.59
2019-03-31T19:08:00.072Z,35.50
2019-03-31T19:11:10.749Z,35.77
2019-03-31T19:14:33.148Z,36.36
2019-03-31T19:17:39.903Z,36.36
2019-03-31T19:20:50.592Z,36.93
2019-03-31T19:24:00.962Z,36.93
2019-03-31T19:27:10.542Z,36.75
2019-03-31T19:30:17.191Z,36.93
2019-03-31T19:33:25.015Z,37.62
2019-03-31T19:36:35.547Z,37.62
2019-03-31T19:39:43.561Z,37.74
2019-03-31T19:42:57.344Z,37.68
2019-03-31T19:46:05.684Z,37.60
2019-03-31T19:49:16.446Z,37.87
2019-03-31T19:52:22.734Z,38.19
2019-03-31T19:55:30.753Z,37.91
2019-03-31T19:58:37.843Z,38.44
2019-03-31T20:01:51.290Z,38.01
2019-03-31T20:05:01.309Z,38.08
2019-03-31T20:08:09.502Z,38.00
2019-03-31T20:11:09.285Z,38.73
2019-03-31T20:14:26.962Z,38.08
2019-03-31T20:17:23.205Z,38.85
2019-03-31T20:20:21.541Z,39.22
2019-03-31T20:23:26.448Z,38.91
2019-03-31T20:26:33.392Z,39.32
2019-03-31T20:29:40.610Z,39.00
2019-03-31T20:32:54.387Z,38.77
2019-03-31T20:36:02.850Z,39.56
2019-03-31T20:39:29.080Z,39.12
2019-03-31T20:42:34.107Z,40.32
2019-03-31T20:45:23.018Z,40.85
2019-03-31T20:48:11.272Z,39.40
2019-03-31T20:51:00.231Z,39.60
2019-03-31T20:53:49.388Z,39.64
2019-03-31T20:56:37.841Z,39.73
2019-03-31T20:59:26.643Z,40.22
2019-03-31T21:02:15.700Z,40.27
2019-03-31T21:05:04.344Z,40.59
2019-03-31T21:07:53.254Z,41.36
2019-03-31T21:10:42.066Z,41.21
2019-03-31T21:13:30.437Z,41.93
2019-03-31T21:16:19.345Z,42.43
2019-03-31T21:19:07.942Z,41.97
2019-03-31T21:21:56.457Z,41.72
2019-03-31T21:24:45.093Z,41.82
2019-03-31T21:27:33.515Z,41.97
2019-03-31T21:30:21.810Z,42.20
2019-03-31T21:33:11.013Z,42.24
2019-03-31T21:35:59.874Z,42.25
2019-03-31T21:38:48.449Z,43.11
2019-03-31T21:41:37.214Z,43.06
2019-03-31T21:44:26.255Z,43.14
2019-03-31T21:47:14.419Z,43.30
2019-03-31T21:50:04.210Z,43.77
2019-03-31T21:52:53.414Z,43.67
2019-03-31T21:55:42.289Z,43.91
2019-03-31T21:58:31.070Z,44.04
2019-03-31T22:01:19.464Z,44.63
2019-03-31T22:04:08.405Z,44.98
2019-03-31T22:06:57.524Z,45.33
2019-03-31T22:09:45.679Z,45.25
2019-03-31T22:12:34.423Z,45.06
2019-03-31T22:15:23.142Z,45.07
2019-03-31T22:18:11.908Z,45.52
2019-03-31T22:21:01.210Z,45.48
2019-03-31T22:23:57.799Z,45.61
2019-03-31T22:26:39.837Z,45.61
2019-03-31T22:29:28.842Z,45.38
2019-03-31T22:32:17.473Z,45.41
2019-03-31T22:35:06.430Z,45.20
2019-03-31T22:37:55.107Z,45.46
2019-03-31T22:40:43.257Z,45.77
2019-03-31T22:43:32.353Z,45.40
2019-03-31T22:46:21.531Z,45.70
2019-03-31T22:49:10.347Z,45.48
2019-03-31T22:51:58.504Z,46.11
2019-03-31T22:54:46.941Z,46.66
2019-03-31T22:57:35.432Z,46.78
2019-03-31T23:00:26.764Z,46.72
2019-03-31T23:03:15.065Z,47.41
2019-03-31T23:06:03.817Z,47.58
2019-03-31T23:08:52.498Z,48.17
2019-03-31T23:11:41.739Z,48.11
2019-03-31T23:14:30.955Z,48.29
2019-03-31T23:17:19.552Z,48.78
2019-03-31T23:20:08.667Z,48.47
2019-03-31T23:22:57.269Z,48.37
2019-03-31T23:25:45.633Z,48.56
2019-03-31T23:28:36.271Z,49.32
2019-03-31T23:31:24.913Z,49.29
2019-03-31T23:34:13.973Z,50.24
2019-03-31T23:37:02.149Z,50.06
2019-03-31T23:39:50.287Z,49.31
2019-03-31T23:42:38.538Z,49.65
2019-03-31T23:45:27.100Z,50.36
2019-03-31T23:48:16.119Z,50.51
2019-03-31T23:51:04.439Z,50.40
2019-03-31T23:53:52.636Z,50.50
2019-03-31T23:56:41.894Z,50.40
2019-03-31T23:59:31.094Z,50.85
